Flag for India

Past Weather in New Okhla Industrial Development Authority, Uttar Pradesh, India — Yesterday and Last 2 Weeks

Currently: 77 °F. Haze. (Weather station: New Delhi Palam Airport, India). See more current weather

Past Weather in New Okhla Industrial Development Authority — Graph

°F

New Okhla Industrial Development Authority Temperature Yesterday

Maximum temperature yesterday: 90 °F (at 3:00 pm)
Minimum temperature yesterday: 59 °F (at 6:30 am)
Average temperature yesterday: 74 °F

High & Low Weather Summary for the Past Weeks

 TemperatureHumidityPressure
High90 °F (Mar 4, 3:00 pm)100% (Feb 20, 3:00 am)30.18 "Hg (Feb 20, 3:00 am)
Low54 °F (Feb 19, 6:00 am)17% (Mar 4, 3:00 pm)29.65 "Hg (Feb 27, 4:00 am)
Average70 °F58%29.93 "Hg
* Reported Feb 18 5:30 pm — Mar 5 6:00 pm, New Okhla Industrial Development Authority. Weather by CustomWeather, © 2021

Note: Actual official high and low records may vary slightly from our data, if they occured in-between our weather recording intervals... More about our weather records

New Okhla Industrial Development Authority Weather History for the Previous 24 Hours

Scroll right to see more
 ConditionsComfort  
Time TempWeatherWind HumidityBarometerVisibility
6:00 pm
Fri, Mar 5
81 °FHaze.9 mph32%29.86 "Hg2 mi
5:30 pm82 °FHaze.12 mph30%29.86 "Hg3 mi
5:00 pm84 °FHaze.9 mph29%29.86 "Hg3 mi
4:30 pm86 °FHaze.9 mph27%29.86 "Hg3 mi
4:00 pm86 °FHaze.9 mph27%29.86 "Hg3 mi
3:30 pm86 °FHaze.9 mph29%29.86 "Hg3 mi
3:00 pm86 °FHaze.9 mph29%29.86 "Hg3 mi
2:30 pm84 °FHaze.9 mph31%29.89 "Hg3 mi
2:00 pm84 °FHaze.9 mph33%29.89 "Hg3 mi
1:30 pm84 °FHaze.9 mph35%29.89 "Hg2 mi
1:00 pm84 °FHaze.13 mph40%29.92 "Hg2 mi
12:30 pm84 °FHaze.14 mph40%29.92 "Hg2 mi
12:00 pm82 °FHaze.12 mph45%29.92 "Hg2 mi
11:30 am81 °FHaze.9 mph48%29.95 "Hg1 mi
11:00 am79 °FHaze.13 mph51%29.95 "Hg1 mi
10:30 am75 °FHaze.9 mph57%29.95 "Hg1 mi
10:00 am73 °FHaze.9 mph61%29.95 "Hg1 mi
9:30 am70 °FClear.8 mph69%29.95 "Hg1 mi
9:00 am66 °FFog.6 mph78%29.95 "Hg1 mi
8:30 am63 °FFog.6 mph83%29.92 "Hg1 mi
8:00 am61 °FFog.6 mph88%29.92 "Hg1 mi
7:30 am57 °FFog.No wind94%29.89 "Hg1 mi
7:00 am57 °FFog.No wind94%29.89 "Hg1 mi
6:30 am59 °FFog.No wind88%29.89 "Hg1 mi
6:00 am59 °FFog.5 mph88%29.89 "Hg1 mi
5:00 am61 °FFog.6 mph77%29.89 "Hg1 mi
4:30 am63 °FClear.5 mph73%29.86 "Hg1 mi
4:00 am63 °FClear.5 mph73%29.86 "Hg1 mi
3:30 am64 °FHaze.No wind73%29.86 "Hg1 mi
3:00 am64 °FHaze.No wind73%29.86 "Hg1 mi
2:30 am64 °FHaze.No wind68%29.89 "Hg1 mi
2:00 am64 °FHaze.No wind68%29.89 "Hg1 mi
1:30 am66 °FHaze.No wind64%29.89 "Hg1 mi
12:00 am68 °FHaze.No wind60%29.89 "Hg1 mi
11:30 pm
Thu, Mar 4
68 °FHaze.No wind60%29.92 "Hg1 mi
11:00 pm70 °FHaze.No wind57%29.92 "Hg1 mi
10:30 pm72 °FHaze.No wind53%29.89 "Hg1 mi
9:30 pm72 °FHaze.3 mph50%29.89 "Hg1 mi
9:00 pm73 °FHaze.5 mph47%29.89 "Hg2 mi
8:30 pm77 °FHaze.No wind36%29.89 "Hg2 mi
7:30 pm82 °FHaze.3 mph25%29.86 "Hg2 mi
7:00 pm84 °FHaze.5 mph22%29.86 "Hg2 mi
Weather by CustomWeather, © 2021

See weather overview